createdAt,value
2022-08-27T00:00:52.319Z,101756.33
2022-08-27T00:03:21.599Z,101755.80
2022-08-27T00:05:50.864Z,101756.31
2022-08-27T00:08:20.366Z,101760.92
2022-08-27T00:10:49.687Z,101753.34
2022-08-27T00:13:19.272Z,101753.31
2022-08-27T00:15:48.616Z,101750.89
2022-08-27T00:18:22.468Z,101747.64
2022-08-27T00:20:49.348Z,101754.94
2022-08-27T00:23:18.951Z,101749.80
2022-08-27T00:25:48.304Z,101754.13
2022-08-27T00:28:17.785Z,101756.27
2022-08-27T00:30:48.019Z,101757.66
2022-08-27T00:33:18.099Z,101752.48
2022-08-27T00:35:47.418Z,101751.42
2022-08-27T00:38:17.553Z,101749.78
2022-08-27T00:40:46.964Z,101753.03
2022-08-27T00:43:28.874Z,101752.75
2022-08-27T00:46:01.416Z,101754.88
2022-08-27T00:48:33.458Z,101745.39
2022-08-27T00:51:03.212Z,101748.37
2022-08-27T00:53:36.173Z,101748.63
2022-08-27T00:56:11.892Z,101754.56
2022-08-27T00:58:51.783Z,101755.63
2022-08-27T01:01:24.465Z,101753.19
2022-08-27T01:03:56.622Z,101752.63
2022-08-27T01:06:29.557Z,101746.07
2022-08-27T01:09:02.132Z,101752.05
2022-08-27T01:11:31.329Z,101748.56
2022-08-27T01:14:01.504Z,101752.64
2022-08-27T01:16:34.178Z,101746.20
2022-08-27T01:19:06.916Z,101745.39
2022-08-27T01:21:54.174Z,101744.88
2022-08-27T01:24:36.033Z,101749.22
2022-08-27T01:27:08.152Z,101746.24
2022-08-27T01:29:39.099Z,101749.22
2022-08-27T01:32:17.319Z,101744.91
2022-08-27T01:34:47.749Z,101746.52
2022-08-27T01:37:22.276Z,101740.84
2022-08-27T01:39:49.807Z,101743.30
2022-08-27T01:42:22.870Z,101738.69
2022-08-27T01:44:55.019Z,101735.97
2022-08-27T01:47:30.642Z,101732.97
2022-08-27T01:49:56.366Z,101727.83
2022-08-27T01:52:28.097Z,101730.00
2022-08-27T01:54:57.948Z,101725.13
2022-08-27T01:57:27.504Z,101737.05
2022-08-27T01:59:57.966Z,101735.67
2022-08-27T02:02:27.487Z,101730.81
2022-08-27T02:04:56.824Z,101734.30
2022-08-27T02:07:26.133Z,101720.48
2022-08-27T02:09:55.677Z,101730.78
2022-08-27T02:12:25.157Z,101734.30
2022-08-27T02:14:54.468Z,101731.61
2022-08-27T02:17:23.824Z,101727.58
2022-08-27T02:19:53.674Z,101728.92
2022-08-27T02:22:24.046Z,101727.27
2022-08-27T02:24:54.113Z,101728.38
2022-08-27T02:27:24.831Z,101732.71
2022-08-27T02:29:55.469Z,101725.37
2022-08-27T02:32:32.186Z,101730.00
2022-08-27T02:34:57.094Z,101731.63
2022-08-27T02:37:26.520Z,101726.21
2022-08-27T02:39:55.944Z,101722.97
2022-08-27T02:42:25.443Z,101721.31
2022-08-27T02:44:55.085Z,101719.95
2022-08-27T02:47:24.465Z,101724.59
2022-08-27T02:49:53.732Z,101722.13
2022-08-27T02:52:24.921Z,101718.63
2022-08-27T02:54:54.500Z,101713.99
2022-08-27T02:57:24.386Z,101709.39
2022-08-27T02:59:54.661Z,101715.06
2022-08-27T03:02:24.170Z,101713.98
2022-08-27T03:04:55.084Z,101713.45
2022-08-27T03:07:24.666Z,101712.39
2022-08-27T03:09:54.043Z,101705.61
2022-08-27T03:12:24.759Z,101710.75
2022-08-27T03:14:54.339Z,101711.02
2022-08-27T03:17:41.199Z,101712.39
2022-08-27T03:20:12.310Z,101711.58
2022-08-27T03:22:42.428Z,101715.66
2022-08-27T03:25:12.480Z,101710.25
2022-08-27T03:27:42.071Z,101713.21
2022-08-27T03:30:15.804Z,101708.61
2022-08-27T03:32:46.408Z,101713.78
2022-08-27T03:35:16.201Z,101708.91
2022-08-27T03:37:45.709Z,101710.23
2022-08-27T03:40:15.940Z,101711.86
2022-08-27T03:42:45.577Z,101709.45
2022-08-27T03:45:15.454Z,101707.53
2022-08-27T03:47:44.763Z,101712.66
2022-08-27T03:50:14.222Z,101712.66
2022-08-27T03:52:43.767Z,101716.70
2022-08-27T03:55:13.037Z,101719.69
2022-08-27T03:57:42.318Z,101709.39
2022-08-27T04:00:14.155Z,101714.27
2022-08-27T04:02:45.541Z,101717.25
2022-08-27T04:05:15.746Z,101717.77
2022-08-27T04:07:49.552Z,101713.16
2022-08-27T04:10:20.859Z,101711.22
2022-08-27T04:12:50.356Z,101717.45
2022-08-27T04:15:19.943Z,101716.05
2022-08-27T04:17:49.202Z,101719.00
2022-08-27T04:20:34.943Z,101716.27
2022-08-27T04:22:49.725Z,101713.57
2022-08-27T04:25:19.206Z,101720.84
2022-08-27T04:27:48.990Z,101717.33
2022-08-27T04:30:21.207Z,101715.44
2022-08-27T04:32:50.787Z,101716.25
2022-08-27T04:35:20.149Z,101716.80
2022-08-27T04:37:49.514Z,101716.49
2022-08-27T04:40:19.229Z,101715.95
2022-08-27T04:42:48.536Z,101718.64
2022-08-27T04:45:18.023Z,101723.51
2022-08-27T04:47:47.313Z,101720.53
2022-08-27T04:50:16.752Z,101724.83
2022-08-27T04:52:46.154Z,101730.52
2022-08-27T04:55:17.451Z,101725.41
2022-08-27T04:57:47.141Z,101727.00
2022-08-27T05:00:17.457Z,101730.76
2022-08-27T05:02:46.743Z,101725.08
2022-08-27T05:05:16.384Z,101725.91
2022-08-27T05:07:46.131Z,101722.72
2022-08-27T05:10:15.537Z,101723.53
2022-08-27T05:12:44.897Z,101720.34
2022-08-27T05:15:14.265Z,101726.31
2022-08-27T05:17:44.234Z,101725.84
2022-08-27T05:20:13.690Z,101722.36
2022-08-27T05:22:43.237Z,101731.06
2022-08-27T05:25:12.644Z,101728.10
2022-08-27T05:27:42.858Z,101731.87
2022-08-27T05:30:14.356Z,101730.02
2022-08-27T05:32:44.387Z,101729.48
2022-08-27T05:35:15.782Z,101739.52
2022-08-27T05:37:45.206Z,101737.64
2022-08-27T05:40:14.694Z,101742.24
2022-08-27T05:42:49.248Z,101742.81
2022-08-27T05:45:17.269Z,101737.09
2022-08-27T05:47:46.522Z,101746.88
2022-08-27T05:50:16.823Z,101744.71
2022-08-27T05:52:46.944Z,101746.55
2022-08-27T05:55:16.890Z,101742.71
2022-08-27T05:57:46.205Z,101744.30
2022-08-27T06:00:33.765Z,101736.92
2022-08-27T06:03:03.101Z,101748.54
2022-08-27T06:05:32.432Z,101746.72
2022-08-27T06:08:01.824Z,101738.94
2022-08-27T06:10:31.113Z,101739.63
2022-08-27T06:13:00.629Z,101735.98
2022-08-27T06:15:29.893Z,101727.63
2022-08-27T06:17:59.315Z,101733.46
2022-08-27T06:20:28.576Z,101741.56
2022-08-27T06:22:58.055Z,101739.98
2022-08-27T06:25:27.370Z,101737.22
2022-08-27T06:27:56.826Z,101738.11
2022-08-27T06:30:26.671Z,101739.59
2022-08-27T06:32:57.126Z,101735.03
2022-08-27T06:35:26.501Z,101745.58
2022-08-27T06:37:55.963Z,101743.55
2022-08-27T06:40:25.883Z,101741.58
2022-08-27T06:42:56.092Z,101742.12
2022-08-27T06:45:25.500Z,101748.18
2022-08-27T06:47:55.946Z,101748.18
2022-08-27T06:50:27.313Z,101750.88
2022-08-27T06:52:56.191Z,101759.28
2022-08-27T06:55:25.690Z,101750.50
2022-08-27T06:57:55.127Z,101749.83
2022-08-27T07:00:25.534Z,101751.95
2022-08-27T07:02:55.096Z,101744.24
2022-08-27T07:05:24.685Z,101750.80
2022-08-27T07:07:54.066Z,101751.11
2022-08-27T07:10:24.872Z,101740.57
2022-08-27T07:12:54.336Z,101747.21
2022-08-27T07:15:24.216Z,101743.77
2022-08-27T07:17:54.868Z,101745.17
2022-08-27T07:20:24.231Z,101743.45
2022-08-27T07:22:54.542Z,101747.82
2022-08-27T07:25:24.271Z,101748.17
2022-08-27T07:27:53.686Z,101747.43
2022-08-27T07:30:23.053Z,101751.52
2022-08-27T07:32:52.553Z,101752.52
2022-08-27T07:35:21.971Z,101757.23
2022-08-27T07:37:51.409Z,101757.11
2022-08-27T07:40:20.928Z,101757.16
2022-08-27T07:43:08.863Z,101759.50
2022-08-27T07:45:46.597Z,101761.97
2022-08-27T07:48:16.919Z,101769.17
2022-08-27T07:50:46.286Z,101766.41
2022-08-27T07:53:15.800Z,101774.47
2022-08-27T07:55:45.500Z,101776.02
2022-08-27T07:58:18.573Z,101777.81
2022-08-27T08:00:46.799Z,101780.82
2022-08-27T08:03:16.650Z,101785.94
2022-08-27T08:05:46.117Z,101781.88
2022-08-27T08:08:16.027Z,101789.02
2022-08-27T08:10:45.343Z,101789.41
2022-08-27T08:13:15.270Z,101788.05
2022-08-27T08:15:48.523Z,101787.84
2022-08-27T08:18:17.967Z,101786.13
2022-08-27T08:20:58.098Z,101784.30
2022-08-27T08:23:20.915Z,101792.53
2022-08-27T08:25:50.258Z,101796.63
2022-08-27T08:28:19.648Z,101795.32
2022-08-27T08:30:49.098Z,101794.42
2022-08-27T08:33:18.555Z,101793.95
2022-08-27T08:35:49.126Z,101799.80
2022-08-27T08:38:19.454Z,101800.38
2022-08-27T08:40:52.594Z,101803.79
2022-08-27T08:43:25.103Z,101807.70
2022-08-27T08:45:53.811Z,101802.30
2022-08-27T08:48:24.593Z,101806.09
2022-08-27T08:51:27.940Z,101801.25
2022-08-27T08:54:00.543Z,101802.83
2022-08-27T08:56:33.839Z,101801.09
2022-08-27T08:59:06.580Z,101805.44
2022-08-27T09:01:36.264Z,101798.34
2022-08-27T09:04:08.779Z,101799.52
2022-08-27T09:06:41.684Z,101804.87
2022-08-27T09:09:19.610Z,101803.07
2022-08-27T09:11:52.298Z,101799.76
2022-08-27T09:14:27.486Z,101806.55
2022-08-27T09:16:58.464Z,101812.16
2022-08-27T09:19:28.032Z,101811.66
2022-08-27T09:22:09.558Z,101812.97
2022-08-27T09:24:48.118Z,101815.02
2022-08-27T09:27:17.501Z,101814.22
2022-08-27T09:29:52.392Z,101811.44
2022-08-27T09:32:31.317Z,101806.47
2022-08-27T09:35:03.415Z,101818.73
2022-08-27T09:37:36.080Z,101805.14
2022-08-27T09:40:13.844Z,101806.86
2022-08-27T09:42:49.823Z,101809.50
2022-08-27T09:45:25.264Z,101808.47
2022-08-27T09:47:58.029Z,101805.52
2022-08-27T09:50:31.505Z,101809.69
2022-08-27T09:53:01.212Z,101799.61
2022-08-27T09:55:34.250Z,101800.93
2022-08-27T09:58:05.840Z,101797.80
2022-08-27T10:00:40.333Z,101800.20
2022-08-27T10:03:11.332Z,101808.97
2022-08-27T10:05:51.772Z,101811.11
2022-08-27T10:08:33.469Z,101807.06
2022-08-27T10:11:05.615Z,101806.23
2022-08-27T10:13:47.157Z,101803.53
2022-08-27T10:16:22.531Z,101805.58
2022-08-27T10:19:06.956Z,101806.32
2022-08-27T10:21:45.363Z,101804.80
2022-08-27T10:24:29.685Z,101809.63
2022-08-27T10:27:23.182Z,101806.55
2022-08-27T10:30:05.055Z,101807.56
2022-08-27T10:32:51.804Z,101802.23
2022-08-27T10:35:23.384Z,101799.28
2022-08-27T10:38:27.958Z,101790.02
2022-08-27T10:41:24.426Z,101797.23
2022-08-27T11:08:40.870Z,101795.31
2022-08-27T11:11:51.775Z,101787.78
2022-08-27T11:13:51.125Z,101790.95
2022-08-27T11:16:23.797Z,101791.04
2022-08-27T11:18:56.584Z,101790.33
2022-08-27T11:21:35.310Z,101783.12
2022-08-27T11:24:16.817Z,101779.92
2022-08-27T11:26:47.272Z,101774.95
2022-08-27T11:29:36.318Z,101779.27
2022-08-27T11:32:12.142Z,101772.01
2022-08-27T11:34:51.061Z,101780.09
2022-08-27T11:37:45.328Z,101789.77
2022-08-27T11:40:26.540Z,101786.13
2022-08-27T11:43:08.413Z,101780.72
2022-08-27T11:45:40.021Z,101781.66
2022-08-27T11:48:27.360Z,101779.41
2022-08-27T11:51:05.645Z,101777.84
2022-08-27T11:53:41.341Z,101776.27
2022-08-27T11:56:23.450Z,101775.90
2022-08-27T11:58:53.745Z,101784.30
2022-08-27T12:01:31.594Z,101778.31
2022-08-27T12:04:09.142Z,101786.39
2022-08-27T12:06:46.760Z,101782.63
2022-08-27T12:09:22.285Z,101778.58
2022-08-27T12:12:12.954Z,101783.14
2022-08-27T12:14:47.067Z,101774.61
2022-08-27T12:17:32.449Z,101771.23
2022-08-27T12:20:30.482Z,101776.42
2022-08-27T12:23:37.679Z,101778.58
2022-08-27T12:26:28.579Z,101779.80
2022-08-27T12:29:28.644Z,101769.20
2022-08-27T12:32:04.147Z,101777.58
2022-08-27T12:34:36.612Z,101773.36
2022-08-27T12:37:07.634Z,101770.64
2022-08-27T12:39:39.099Z,101767.72
2022-08-27T12:42:13.910Z,101769.50
2022-08-27T12:44:43.151Z,101768.91
2022-08-27T12:47:15.696Z,101773.49
2022-08-27T12:49:55.939Z,101773.49
2022-08-27T12:52:39.989Z,101764.30
2022-08-27T12:55:30.870Z,101762.25
2022-08-27T12:58:14.835Z,101761.84
2022-08-27T13:01:14.537Z,101768.87
2022-08-27T13:03:49.950Z,101768.83
2022-08-27T13:06:25.684Z,101760.36
2022-08-27T13:08:59.226Z,101759.56
2022-08-27T13:11:33.995Z,101756.34
2022-08-27T13:14:09.266Z,101760.50
2022-08-27T13:16:40.390Z,101750.34
2022-08-27T13:19:12.788Z,101751.19
2022-08-27T13:21:42.335Z,101755.58
2022-08-27T13:24:11.865Z,101750.84
2022-08-27T13:26:41.406Z,101749.97
2022-08-27T13:29:10.828Z,101754.81
2022-08-27T13:31:40.399Z,101747.46
2022-08-27T13:34:11.149Z,101743.27
2022-08-27T13:36:54.317Z,101750.26
2022-08-27T13:39:23.564Z,101745.16
2022-08-27T13:41:53.059Z,101744.38
2022-08-27T13:44:25.429Z,101745.64
2022-08-27T13:47:01.030Z,101741.88
2022-08-27T13:49:32.646Z,101750.74
2022-08-27T13:52:24.801Z,101751.14
2022-08-27T13:55:11.150Z,101746.63
2022-08-27T13:57:49.488Z,101746.52
2022-08-27T14:00:22.120Z,101746.76
2022-08-27T14:02:55.751Z,101747.97
2022-08-27T14:05:28.872Z,101738.33
2022-08-27T14:08:17.191Z,101740.99
2022-08-27T14:10:49.362Z,101741.36
2022-08-27T14:13:24.148Z,101736.78
2022-08-27T14:15:55.627Z,101736.28
2022-08-27T14:18:58.793Z,101730.25
2022-08-27T14:21:06.260Z,101730.12
2022-08-27T14:23:35.711Z,101735.04
2022-08-27T14:26:05.726Z,101728.47
2022-08-27T14:28:35.239Z,101733.32
2022-08-27T14:31:04.688Z,101728.77
2022-08-27T14:33:34.263Z,101735.16
2022-08-27T14:36:03.799Z,101738.72
2022-08-27T14:38:35.579Z,101735.05
2022-08-27T14:41:06.720Z,101737.23
2022-08-27T14:43:36.469Z,101743.41
2022-08-27T14:46:07.317Z,101741.33
2022-08-27T14:48:37.044Z,101735.84
2022-08-27T14:51:09.489Z,101737.23
2022-08-27T14:53:38.210Z,101744.46
2022-08-27T14:56:07.654Z,101744.94
2022-08-27T14:58:37.157Z,101742.77
2022-08-27T15:01:06.838Z,101750.20
2022-08-27T15:03:39.117Z,101751.05
2022-08-27T15:06:08.420Z,101752.77
2022-08-27T15:08:38.261Z,101751.91
2022-08-27T15:11:14.782Z,101751.50
2022-08-27T15:13:44.657Z,101743.80
2022-08-27T15:16:19.526Z,101753.64
2022-08-27T15:18:53.667Z,101757.98
2022-08-27T15:21:21.350Z,101763.52
2022-08-27T15:23:51.480Z,101757.64
2022-08-27T15:26:20.927Z,101753.96
2022-08-27T15:28:50.633Z,101754.19
2022-08-27T15:31:20.737Z,101758.33
2022-08-27T15:33:50.370Z,101753.06
2022-08-27T15:36:20.054Z,101751.82
2022-08-27T15:38:49.431Z,101753.83
2022-08-27T15:41:19.335Z,101752.86
2022-08-27T15:43:48.688Z,101752.14
2022-08-27T15:46:18.098Z,101754.12
2022-08-27T15:48:47.593Z,101754.33
2022-08-27T15:51:18.539Z,101754.77
2022-08-27T15:53:47.933Z,101750.94
2022-08-27T15:56:19.938Z,101745.10
2022-08-27T15:58:49.389Z,101745.45
2022-08-27T16:01:25.230Z,101745.31
2022-08-27T16:03:55.355Z,101748.19
2022-08-27T16:06:25.048Z,101747.94
2022-08-27T16:08:54.696Z,101744.45
2022-08-27T16:11:24.104Z,101745.84
2022-08-27T16:13:55.554Z,101743.17
2022-08-27T16:16:27.237Z,101746.44
2022-08-27T16:18:57.138Z,101749.64
2022-08-27T16:21:26.558Z,101749.31
2022-08-27T16:23:55.842Z,101745.28
2022-08-27T16:26:25.314Z,101748.83
2022-08-27T16:28:54.924Z,101749.97
2022-08-27T16:31:24.228Z,101747.48
2022-08-27T16:33:53.697Z,101753.30
2022-08-27T16:36:23.104Z,101744.94
2022-08-27T16:38:52.523Z,101737.42
2022-08-27T16:41:23.002Z,101746.17
2022-08-27T16:43:52.439Z,101741.84
2022-08-27T16:46:21.933Z,101744.41
2022-08-27T16:49:09.363Z,101741.98
2022-08-27T16:51:38.768Z,101741.45
2022-08-27T16:54:08.593Z,101735.19
2022-08-27T16:56:38.130Z,101726.59
2022-08-27T16:59:08.088Z,101731.45
2022-08-27T17:01:38.171Z,101731.28
2022-08-27T17:04:16.154Z,101736.24
2022-08-27T17:06:42.336Z,101736.66
2022-08-27T17:09:12.228Z,101741.16
2022-08-27T17:11:43.329Z,101738.16
2022-08-27T17:14:13.178Z,101742.06
2022-08-27T17:16:45.008Z,101744.97
2022-08-27T17:19:16.764Z,101744.55
2022-08-27T17:21:46.897Z,101746.50
2022-08-27T17:24:16.191Z,101737.45
2022-08-27T17:26:54.584Z,101745.03
2022-08-27T17:29:37.839Z,101746.47
2022-08-27T17:32:08.778Z,101745.38
2022-08-27T17:34:42.740Z,101741.53
2022-08-27T17:37:12.099Z,101745.23
2022-08-27T17:39:41.588Z,101744.54
2022-08-27T17:42:10.977Z,101744.84
2022-08-27T17:44:40.337Z,101746.70
2022-08-27T17:47:10.140Z,101746.70
2022-08-27T17:49:39.696Z,101747.06
2022-08-27T17:52:11.849Z,101744.30
2022-08-27T17:54:44.277Z,101751.13
2022-08-27T17:57:22.494Z,101760.93
2022-08-27T17:59:53.564Z,101752.35
2022-08-27T18:02:26.149Z,101759.20
2022-08-27T18:04:54.895Z,101762.09
2022-08-27T18:07:24.637Z,101757.50
2022-08-27T18:09:55.346Z,101760.14
2022-08-27T18:12:26.448Z,101769.24
2022-08-27T18:15:07.803Z,101770.23
2022-08-27T18:17:37.845Z,101768.81
2022-08-27T18:20:10.361Z,101768.64
2022-08-27T18:22:40.996Z,101770.00
2022-08-27T18:25:11.367Z,101775.28
2022-08-27T18:27:42.656Z,101779.70
2022-08-27T18:30:13.166Z,101781.62
2022-08-27T18:32:42.619Z,101786.59
2022-08-27T18:35:18.021Z,101786.31
2022-08-27T18:37:47.702Z,101786.94
2022-08-27T18:40:18.886Z,101792.41
2022-08-27T18:42:49.135Z,101791.10
2022-08-27T18:45:23.031Z,101793.55
2022-08-27T18:47:53.558Z,101790.63
2022-08-27T18:50:23.981Z,101791.19
2022-08-27T18:52:54.929Z,101799.92
2022-08-27T18:55:28.019Z,101802.65
2022-08-27T18:57:57.482Z,101805.69
2022-08-27T19:00:26.808Z,101805.42
2022-08-27T19:02:57.507Z,101807.95
2022-08-27T19:05:28.088Z,101808.48
2022-08-27T19:07:59.444Z,101812.38
2022-08-27T19:10:30.753Z,101813.80
2022-08-27T19:13:00.295Z,101821.16
2022-08-27T19:15:29.729Z,101821.14
2022-08-27T19:18:02.300Z,101827.95
2022-08-27T19:20:31.310Z,101829.66
2022-08-27T19:23:01.413Z,101829.67
2022-08-27T19:25:31.296Z,101831.15
2022-08-27T19:28:02.502Z,101836.58
2022-08-27T19:30:31.848Z,101840.43
2022-08-27T19:33:01.152Z,101840.53
2022-08-27T19:35:30.397Z,101843.00
2022-08-27T19:37:59.829Z,101843.56
2022-08-27T19:40:30.075Z,101846.03
2022-08-27T19:42:59.762Z,101849.57
2022-08-27T19:45:29.448Z,101857.53
2022-08-27T19:48:00.799Z,101863.53
2022-08-27T19:50:30.152Z,101858.43
2022-08-27T19:52:59.544Z,101854.09
2022-08-27T19:55:28.891Z,101860.39
2022-08-27T19:57:58.243Z,101863.13
2022-08-27T20:00:28.056Z,101863.20
2022-08-27T20:02:57.749Z,101863.45
2022-08-27T20:05:27.136Z,101869.23
2022-08-27T20:07:56.629Z,101871.45
2022-08-27T20:10:31.795Z,101871.48
2022-08-27T20:12:59.962Z,101867.63
2022-08-27T20:15:29.876Z,101867.41
2022-08-27T20:17:59.674Z,101872.04
2022-08-27T20:20:29.973Z,101872.04
2022-08-27T20:23:01.421Z,101868.81
2022-08-27T20:25:30.707Z,101868.33
2022-08-27T20:28:12.263Z,101863.99
2022-08-27T20:30:31.681Z,101868.63
2022-08-27T20:33:01.332Z,101867.27
2022-08-27T20:35:30.788Z,101862.92
2022-08-27T20:38:00.349Z,101867.56
2022-08-27T20:40:45.795Z,101867.27
2022-08-27T20:43:15.566Z,101874.63
2022-08-27T20:45:45.239Z,101871.94
2022-08-27T20:48:14.872Z,101873.91
2022-08-27T20:50:44.589Z,101877.44
2022-08-27T20:53:14.253Z,101883.20
2022-08-27T20:55:43.800Z,101889.51
2022-08-27T20:58:31.094Z,101888.70
2022-08-27T21:01:01.289Z,101888.98
2022-08-27T21:03:30.804Z,101894.16
2022-08-27T21:06:00.484Z,101890.39
2022-08-27T21:08:30.391Z,101880.41
2022-08-27T21:11:00.295Z,101886.91
2022-08-27T21:13:30.136Z,101887.45
2022-08-27T21:15:59.813Z,101883.17
2022-08-27T21:18:30.715Z,101889.45
2022-08-27T21:21:01.394Z,101888.66
2022-08-27T21:23:31.609Z,101887.61
2022-08-27T21:26:07.660Z,101890.05
2022-08-27T21:28:39.428Z,101888.72
2022-08-27T21:31:09.544Z,101896.10
2022-08-27T21:33:39.664Z,101896.10
2022-08-27T21:36:12.181Z,101896.91
2022-08-27T21:38:41.043Z,101900.73
2022-08-27T21:41:10.807Z,101902.62
2022-08-27T21:43:40.157Z,101900.99
2022-08-27T21:46:09.581Z,101907.23
2022-08-27T21:48:39.485Z,101911.30
2022-08-27T21:51:10.400Z,101908.30
2022-08-27T21:53:39.679Z,101913.99
2022-08-27T21:56:09.128Z,101915.61
2022-08-27T21:58:38.785Z,101913.97
2022-08-27T22:01:08.959Z,101918.30
2022-08-27T22:03:38.547Z,101919.09
2022-08-27T22:06:09.530Z,101919.09
2022-08-27T22:08:38.926Z,101922.88
2022-08-27T22:11:09.472Z,101914.98
2022-08-27T22:13:39.796Z,101917.16
2022-08-27T22:16:09.732Z,101919.03
2022-08-27T22:18:39.211Z,101914.72
2022-08-27T22:21:08.849Z,101920.94
2022-08-27T22:23:38.140Z,101914.95
2022-08-27T22:26:09.175Z,101916.59
2022-08-27T22:28:38.592Z,101919.28
2022-08-27T22:31:08.905Z,101919.53
2022-08-27T22:33:38.187Z,101920.34
2022-08-27T22:36:07.888Z,101921.41
2022-08-27T22:38:37.235Z,101926.02
2022-08-27T22:41:07.960Z,101925.50
2022-08-27T22:43:39.116Z,101923.59
2022-08-27T22:46:08.702Z,101922.78
2022-08-27T22:48:38.399Z,101925.47
2022-08-27T22:51:09.214Z,101925.72
2022-08-27T22:53:39.444Z,101933.55
2022-08-27T22:56:09.412Z,101935.48
2022-08-27T22:58:38.807Z,101937.64
2022-08-27T23:01:09.110Z,101936.53
2022-08-27T23:03:38.580Z,101936.50
2022-08-27T23:06:08.104Z,101937.56
2022-08-27T23:08:37.606Z,101941.39
2022-08-27T23:11:07.250Z,101942.44
2022-08-27T23:13:36.653Z,101938.37
2022-08-27T23:16:06.275Z,101934.83
2022-08-27T23:18:36.420Z,101941.84
2022-08-27T23:21:06.336Z,101942.38
2022-08-27T23:23:36.427Z,101941.00
2022-08-27T23:26:25.407Z,101932.30
2022-08-27T23:28:54.983Z,101940.15
2022-08-27T23:31:24.527Z,101940.39
2022-08-27T23:33:54.471Z,101942.02
2022-08-27T23:36:23.821Z,101940.39
2022-08-27T23:38:53.349Z,101938.77
2022-08-27T23:41:22.738Z,101934.66
2022-08-27T23:43:52.063Z,101940.31
2022-08-27T23:46:21.486Z,101937.03
2022-08-27T23:48:50.843Z,101935.44
2022-08-27T23:51:20.099Z,101935.41
2022-08-27T23:53:49.616Z,101940.27
2022-08-27T23:56:18.950Z,101940.24
2022-08-27T23:58:48.879Z,101930.80
